Time;durP1;ratioP1;P1;durP2;ratioP2;P2;SDS_P1;SDS_P2;PMS_P1;PMS_P2;Temp;Humidity;BMP_temperature;BMP_pressure;BME280_temperature;BME280_humidity;BME280_pressure;Samples;Min_cycle;Max_cycle;Signal;HPM_P1;HPM_P2
2022/03/28 00:02:05;;;;;;;7.85;5.40;;;;;;;;;;5030205;28;20033;-49
2022/03/28 00:04:31;;;;;;;9.38;5.40;;;;;;;;;;5049512;28;20056;-50
2022/03/28 00:06:58;;;;;;;7.47;5.10;;;;;;;;;;5048267;28;20112;-48
2022/03/28 00:09:24;;;;;;;7.85;5.40;;;;;;;;;;5049300;28;20496;-46
2022/03/28 00:11:51;;;;;;;7.80;4.80;;;;;;;;;;5047947;28;20021;-50
2022/03/28 00:14:17;;;;;;;7.20;5.40;;;;;;;;;;5046060;28;20102;-50
2022/03/28 00:16:43;;;;;;;6.85;4.70;;;;;;;;;;5047584;28;20021;-50
2022/03/28 00:19:09;;;;;;;8.13;5.55;;;;;;;;;;5048114;28;20024;-46
2022/03/28 00:21:35;;;;;;;8.10;5.68;;;;;;;;;;5047733;28;20404;-46
2022/03/28 00:24:02;;;;;;;8.63;5.68;;;;;;;;;;5037213;28;20025;-47
2022/03/28 00:26:28;;;;;;;8.45;5.50;;;;;;;;;;5048402;28;20413;-47
2022/03/28 00:28:54;;;;;;;9.60;5.90;;;;;;;;;;5048086;28;20112;-47
2022/03/28 00:31:20;;;;;;;8.43;5.07;;;;;;;;;;5047721;28;20492;-48
2022/03/28 00:33:47;;;;;;;9.07;5.47;;;;;;;;;;5044194;28;20045;-49
2022/03/28 00:36:13;;;;;;;7.93;5.22;;;;;;;;;;5047725;28;20421;-47
2022/03/28 00:38:39;;;;;;;8.40;5.47;;;;;;;;;;5047226;28;20064;-51
2022/03/28 00:41:05;;;;;;;8.15;5.38;;;;;;;;;;5047576;28;20560;-50
2022/03/28 00:43:31;;;;;;;8.82;5.72;;;;;;;;;;5045714;28;20028;-48
2022/03/28 00:45:58;;;;;;;9.27;5.47;;;;;;;;;;5047163;28;20488;-48
2022/03/28 00:48:26;;;;;;;8.88;5.90;;;;;;;;;;5045793;28;20381;-49
2022/03/28 00:50:55;;;;;;;8.35;5.75;;;;;;;;;;5045288;28;20029;-47
2022/03/28 00:53:21;;;;;;;9.00;5.65;;;;;;;;;;5043843;28;20033;-47
2022/03/28 00:55:47;;;;;;;9.38;5.88;;;;;;;;;;5036474;28;20036;-51
2022/03/28 00:58:13;;;;;;;10.00;5.95;;;;;;;;;;5047451;28;20037;-50
2022/03/28 01:00:40;;;;;;;9.35;5.75;;;;;;;;;;5041358;28;20018;-49
2022/03/28 01:03:06;;;;;;;9.18;5.50;;;;;;;;;;5026829;28;20512;-50
2022/03/28 01:05:32;;;;;;;7.82;5.50;;;;;;;;;;5036776;28;20036;-48
2022/03/28 01:08:00;;;;;;;9.43;6.05;;;;;;;;;;5047310;28;20488;-49
2022/03/28 01:10:26;;;;;;;8.73;5.38;;;;;;;;;;5047067;28;20547;-50
2022/03/28 01:12:53;;;;;;;9.38;5.43;;;;;;;;;;5046805;28;20029;-52
2022/03/28 01:15:19;;;;;;;9.45;6.15;;;;;;;;;;5045606;28;20028;-48
2022/03/28 01:20:32;;;;;;;8.10;5.90;;;;;;;;;;5047010;28;20044;-48
2022/03/28 01:22:59;;;;;;;7.85;5.00;;;;;;;;;;5035821;28;20026;-50
2022/03/28 01:25:26;;;;;;;8.07;5.25;;;;;;;;;;5041465;28;20108;-51
2022/03/28 01:27:53;;;;;;;6.85;5.10;;;;;;;;;;5046662;28;20204;-50
2022/03/28 01:30:20;;;;;;;8.65;5.55;;;;;;;;;;5046542;28;20500;-48
2022/03/28 01:32:47;;;;;;;7.63;4.57;;;;;;;;;;5044892;28;20033;-49
2022/03/28 01:35:13;;;;;;;9.38;5.88;;;;;;;;;;5045231;28;20116;-50
2022/03/28 01:37:39;;;;;;;7.57;5.35;;;;;;;;;;5028701;28;20037;-50
2022/03/28 01:40:06;;;;;;;10.10;6.03;;;;;;;;;;5027472;28;20440;-47
2022/03/28 01:42:32;;;;;;;8.95;5.57;;;;;;;;;;5026664;28;20091;-46
2022/03/28 01:44:58;;;;;;;9.02;6.20;;;;;;;;;;5026640;28;20454;-50
2022/03/28 01:47:27;;;;;;;10.25;6.88;;;;;;;;;;5038791;28;20455;-50
2022/03/28 01:49:53;;;;;;;9.27;6.05;;;;;;;;;;5046367;28;20029;-51
2022/03/28 01:52:19;;;;;;;8.65;5.68;;;;;;;;;;5046257;28;20492;-51
2022/03/28 01:54:45;;;;;;;8.60;5.88;;;;;;;;;;5046334;28;20025;-50
2022/03/28 01:57:11;;;;;;;8.82;5.78;;;;;;;;;;5040235;28;20242;-50
2022/03/28 01:59:37;;;;;;;9.77;6.00;;;;;;;;;;5046519;28;20025;-50
2022/03/28 02:02:04;;;;;;;10.05;6.13;;;;;;;;;;5036467;28;20033;-51
2022/03/28 02:04:32;;;;;;;9.45;6.20;;;;;;;;;;5025559;28;20029;-50
2022/03/28 02:06:58;;;;;;;8.73;5.95;;;;;;;;;;5031950;28;20690;-47
2022/03/28 02:09:24;;;;;;;10.63;5.68;;;;;;;;;;5044615;28;20033;-49
2022/03/28 02:11:50;;;;;;;9.07;6.22;;;;;;;;;;5046010;28;20029;-50
2022/03/28 02:14:16;;;;;;;8.68;5.88;;;;;;;;;;5046063;28;20037;-47
2022/03/28 02:16:42;;;;;;;9.00;6.05;;;;;;;;;;5044299;28;20033;-50
2022/03/28 02:19:08;;;;;;;8.57;5.88;;;;;;;;;;5046949;28;20032;-49
2022/03/28 02:21:34;;;;;;;7.78;5.15;;;;;;;;;;5046052;28;20400;-48
2022/03/28 02:24:01;;;;;;;8.68;5.20;;;;;;;;;;5026806;28;20032;-51
2022/03/28 02:26:27;;;;;;;9.98;6.05;;;;;;;;;;5026278;28;20133;-50
2022/03/28 02:28:53;;;;;;;9.20;5.68;;;;;;;;;;5043902;28;20520;-50
2022/03/28 02:31:19;;;;;;;8.98;5.78;;;;;;;;;;5045717;28;20074;-51
2022/03/28 02:33:45;;;;;;;9.50;6.00;;;;;;;;;;5043751;28;20028;-50
2022/03/28 02:36:12;;;;;;;9.18;5.68;;;;;;;;;;5045775;28;20155;-49
2022/03/28 02:38:38;;;;;;;7.65;5.47;;;;;;;;;;5046348;28;20032;-50
2022/03/28 02:41:04;;;;;;;8.45;5.35;;;;;;;;;;5045765;28;20044;-48
2022/03/28 02:43:30;;;;;;;9.68;5.75;;;;;;;;;;5044091;28;20137;-51
2022/03/28 02:45:56;;;;;;;9.00;5.43;;;;;;;;;;5043258;28;20031;-50
2022/03/28 02:48:22;;;;;;;7.45;5.07;;;;;;;;;;5026763;28;20558;-48
2022/03/28 02:50:49;;;;;;;7.20;5.20;;;;;;;;;;5025201;28;20106;-50
2022/03/28 02:53:16;;;;;;;8.70;5.75;;;;;;;;;;5038661;28;20033;-48
2022/03/28 02:55:43;;;;;;;7.65;5.10;;;;;;;;;;5044308;28;20033;-49
2022/03/28 02:58:09;;;;;;;9.23;6.00;;;;;;;;;;5045410;28;20068;-48
2022/03/28 03:00:36;;;;;;;8.35;5.53;;;;;;;;;;5045366;28;20029;-48
2022/03/28 03:03:02;;;;;;;6.80;4.97;;;;;;;;;;5035109;28;20034;-50
2022/03/28 03:05:28;;;;;;;9.65;5.72;;;;;;;;;;5039399;28;20112;-49
2022/03/28 03:07:55;;;;;;;7.95;5.03;;;;;;;;;;5045256;28;20025;-47
2022/03/28 03:10:21;;;;;;;7.75;5.50;;;;;;;;;;5050073;28;20086;-48
2022/03/28 03:12:47;;;;;;;6.85;4.45;;;;;;;;;;5047208;28;20144;-50
2022/03/28 03:15:13;;;;;;;7.47;4.90;;;;;;;;;;5049306;28;20432;-49
2022/03/28 03:17:39;;;;;;;8.30;5.35;;;;;;;;;;5048918;28;20055;-50
2022/03/28 03:20:06;;;;;;;7.38;5.20;;;;;;;;;;5046710;28;20120;-50
2022/03/28 03:22:32;;;;;;;8.77;5.07;;;;;;;;;;5044632;28;20457;-47
2022/03/28 03:24:59;;;;;;;7.50;4.68;;;;;;;;;;5049481;28;20021;-49
2022/03/28 03:27:25;;;;;;;7.97;5.03;;;;;;;;;;5049157;28;20029;-47
2022/03/28 03:29:52;;;;;;;8.07;4.95;;;;;;;;;;5049222;28;20057;-49
2022/03/28 03:32:19;;;;;;;7.18;5.05;;;;;;;;;;5045839;28;20086;-47
2022/03/28 03:34:46;;;;;;;8.02;5.10;;;;;;;;;;5048931;28;20029;-49
2022/03/28 03:37:12;;;;;;;7.65;5.00;;;;;;;;;;5049329;28;20040;-47
2022/03/28 03:39:38;;;;;;;7.35;5.38;;;;;;;;;;5048708;28;20025;-50
2022/03/28 03:42:05;;;;;;;7.80;4.82;;;;;;;;;;5047401;28;20111;-48
2022/03/28 03:44:31;;;;;;;6.95;4.90;;;;;;;;;;5048354;28;20100;-47
2022/03/28 03:46:57;;;;;;;6.78;5.03;;;;;;;;;;5048768;28;20656;-50
2022/03/28 03:49:23;;;;;;;7.57;4.72;;;;;;;;;;5048985;28;20029;-49
2022/03/28 03:51:49;;;;;;;7.25;4.65;;;;;;;;;;5047184;28;20025;-47
2022/03/28 03:54:16;;;;;;;7.65;4.85;;;;;;;;;;5029206;28;20101;-50
2022/03/28 03:56:42;;;;;;;7.30;4.95;;;;;;;;;;5028464;28;20026;-50
2022/03/28 03:59:08;;;;;;;8.35;4.85;;;;;;;;;;5028373;28;20031;-51
2022/03/28 04:01:34;;;;;;;7.95;5.32;;;;;;;;;;5029162;28;20025;-50
2022/03/28 04:04:01;;;;;;;7.10;4.53;;;;;;;;;;5039670;28;20540;-47
2022/03/28 04:06:27;;;;;;;8.40;4.70;;;;;;;;;;5028150;28;20025;-47
2022/03/28 04:08:53;;;;;;;7.65;5.00;;;;;;;;;;5028687;28;20033;-47
2022/03/28 04:11:19;;;;;;;7.28;5.00;;;;;;;;;;5029188;28;20588;-47
2022/03/28 04:13:45;;;;;;;7.00;4.57;;;;;;;;;;5037425;28;20078;-51
2022/03/28 04:16:12;;;;;;;6.72;4.32;;;;;;;;;;5038819;28;20454;-50
2022/03/28 04:18:38;;;;;;;8.13;4.93;;;;;;;;;;5048014;28;20029;-48
2022/03/28 04:21:04;;;;;;;7.00;4.05;;;;;;;;;;5047256;28;20053;-48
2022/03/28 04:23:30;;;;;;;6.45;4.35;;;;;;;;;;5035283;28;20017;-47
2022/03/28 04:25:56;;;;;;;7.00;4.72;;;;;;;;;;5046547;28;20033;-50
2022/03/28 04:28:23;;;;;;;5.70;4.13;;;;;;;;;;5047336;28;20504;-47
2022/03/28 04:30:50;;;;;;;6.00;4.07;;;;;;;;;;5047942;28;20033;-48
2022/03/28 04:33:17;;;;;;;6.38;4.45;;;;;;;;;;5046344;28;20419;-50
2022/03/28 04:35:44;;;;;;;7.30;4.65;;;;;;;;;;5047762;28;20488;-48
2022/03/28 04:38:10;;;;;;;6.85;4.55;;;;;;;;;;5047414;28;20076;-50
2022/03/28 04:40:38;;;;;;;7.60;5.07;;;;;;;;;;5047494;28;20025;-51
2022/03/28 04:43:04;;;;;;;7.05;4.63;;;;;;;;;;5046212;28;20435;-51
2022/03/28 04:45:32;;;;;;;6.28;4.35;;;;;;;;;;5044765;28;20025;-50
2022/03/28 04:47:58;;;;;;;6.30;4.47;;;;;;;;;;5047966;28;20416;-49
2022/03/28 04:50:25;;;;;;;7.82;4.68;;;;;;;;;;5042461;28;20036;-46
2022/03/28 04:52:51;;;;;;;8.68;5.20;;;;;;;;;;5027708;28;20451;-49
2022/03/28 04:55:17;;;;;;;9.00;4.85;;;;;;;;;;5027717;28;20029;-50
2022/03/28 04:57:43;;;;;;;7.80;5.25;;;;;;;;;;5027249;28;20112;-46
2022/03/28 05:00:10;;;;;;;7.28;4.97;;;;;;;;;;5027186;28;20033;-51
2022/03/28 05:02:38;;;;;;;8.85;6.00;;;;;;;;;;5032205;28;20496;-46
2022/03/28 05:05:05;;;;;;;6.88;5.32;;;;;;;;;;5035675;28;20095;-49
2022/03/28 05:07:31;;;;;;;9.48;6.07;;;;;;;;;;5029942;28;20033;-50
2022/03/28 05:09:58;;;;;;;10.05;5.43;;;;;;;;;;5046954;28;20036;-50
2022/03/28 05:12:25;;;;;;;9.00;6.53;;;;;;;;;;5048563;28;20075;-49
2022/03/28 05:14:51;;;;;;;8.57;5.43;;;;;;;;;;5046736;28;20048;-48
2022/03/28 05:17:21;;;;;;;7.70;5.45;;;;;;;;;;5046613;28;20076;-48
2022/03/28 05:19:48;;;;;;;7.15;5.45;;;;;;;;;;5047724;28;20036;-50
2022/03/28 05:22:14;;;;;;;7.68;5.32;;;;;;;;;;5043249;28;20560;-47
2022/03/28 05:24:40;;;;;;;8.13;4.82;;;;;;;;;;5040695;28;20029;-48
2022/03/28 05:27:06;;;;;;;8.52;4.97;;;;;;;;;;5047880;28;20025;-47
2022/03/28 05:29:32;;;;;;;6.88;4.47;;;;;;;;;;5047483;28;20086;-48
2022/03/28 05:31:59;;;;;;;9.25;5.20;;;;;;;;;;5035589;28;20037;-51
2022/03/28 05:34:25;;;;;;;10.23;5.57;;;;;;;;;;5034465;28;20431;-51
2022/03/28 05:36:51;;;;;;;7.10;4.47;;;;;;;;;;5038326;28;20032;-50
2022/03/28 05:39:17;;;;;;;6.13;4.43;;;;;;;;;;5040048;28;20029;-50
2022/03/28 05:41:44;;;;;;;6.95;4.53;;;;;;;;;;5047914;28;20044;-51
2022/03/28 05:44:10;;;;;;;7.32;4.30;;;;;;;;;;5047388;28;20029;-50
2022/03/28 05:46:36;;;;;;;6.43;4.38;;;;;;;;;;5047682;28;20044;-48
2022/03/28 05:49:03;;;;;;;6.25;4.30;;;;;;;;;;5046001;28;20112;-50
2022/03/28 05:51:29;;;;;;;7.07;4.32;;;;;;;;;;5038017;28;20547;-51
2022/03/28 05:53:55;;;;;;;8.05;5.30;;;;;;;;;;5026814;28;20021;-49
2022/03/28 05:56:22;;;;;;;9.70;5.25;;;;;;;;;;5028425;28;20030;-46
2022/03/28 05:58:48;;;;;;;8.35;5.22;;;;;;;;;;5043240;28;20205;-50
2022/03/28 06:01:14;;;;;;;8.52;5.47;;;;;;;;;;5038087;28;20059;-50
2022/03/28 06:03:41;;;;;;;8.38;5.32;;;;;;;;;;5027146;28;20581;-49
2022/03/28 06:06:08;;;;;;;6.50;4.95;;;;;;;;;;5042195;28;20040;-50
2022/03/28 06:08:35;;;;;;;7.60;5.00;;;;;;;;;;5040157;28;20663;-48
2022/03/28 06:11:03;;;;;;;6.75;4.25;;;;;;;;;;5035156;28;20039;-47
2022/03/28 06:13:30;;;;;;;7.40;4.57;;;;;;;;;;5035679;28;20032;-51
2022/03/28 06:15:57;;;;;;;5.78;4.00;;;;;;;;;;5027387;28;20459;-49
2022/03/28 06:18:23;;;;;;;6.28;3.95;;;;;;;;;;5040274;28;20078;-48
2022/03/28 06:20:49;;;;;;;6.28;3.75;;;;;;;;;;5046636;28;20028;-50
2022/03/28 06:23:16;;;;;;;4.88;3.60;;;;;;;;;;5032188;28;20033;-48
2022/03/28 06:25:42;;;;;;;9.23;4.05;;;;;;;;;;5045702;28;20056;-51
2022/03/28 06:28:10;;;;;;;6.93;3.65;;;;;;;;;;5042399;28;20555;-49
2022/03/28 06:30:37;;;;;;;5.32;3.78;;;;;;;;;;5029423;28;20152;-48
2022/03/28 06:33:03;;;;;;;5.72;3.72;;;;;;;;;;5027210;28;20033;-48
2022/03/28 06:35:30;;;;;;;5.45;3.58;;;;;;;;;;5026616;28;20037;-47
2022/03/28 06:37:56;;;;;;;6.72;3.63;;;;;;;;;;5026851;28;20116;-48
2022/03/28 06:40:24;;;;;;;6.10;4.10;;;;;;;;;;5042527;28;20029;-48
2022/03/28 06:42:50;;;;;;;6.47;4.07;;;;;;;;;;5026817;28;20087;-49
2022/03/28 06:45:17;;;;;;;6.20;4.30;;;;;;;;;;5027400;28;20037;-51
2022/03/28 06:47:45;;;;;;;6.90;4.45;;;;;;;;;;5026192;28;20026;-51
2022/03/28 06:50:11;;;;;;;5.70;3.53;;;;;;;;;;5029473;28;20037;-50
2022/03/28 06:52:38;;;;;;;5.55;3.95;;;;;;;;;;5041508;28;20037;-49
2022/03/28 06:55:05;;;;;;;5.95;4.20;;;;;;;;;;5044350;28;20044;-49
2022/03/28 06:57:31;;;;;;;4.97;3.45;;;;;;;;;;5029392;28;20041;-50
2022/03/28 06:59:58;;;;;;;5.93;3.92;;;;;;;;;;5045331;28;20491;-50
2022/03/28 07:02:24;;;;;;;6.95;4.60;;;;;;;;;;5046039;28;20064;-49
2022/03/28 07:04:50;;;;;;;4.90;3.58;;;;;;;;;;5027904;28;20029;-52
2022/03/28 07:07:17;;;;;;;4.32;3.28;;;;;;;;;;5027928;28;20037;-47
2022/03/28 07:09:43;;;;;;;5.60;3.55;;;;;;;;;;5032629;28;20039;-51
2022/03/28 07:12:10;;;;;;;5.90;3.40;;;;;;;;;;5036988;28;20032;-49
2022/03/28 07:14:36;;;;;;;5.25;3.70;;;;;;;;;;5045097;28;20033;-50
2022/03/28 07:17:03;;;;;;;5.07;3.50;;;;;;;;;;5034468;28;20046;-51
2022/03/28 07:19:29;;;;;;;4.70;3.42;;;;;;;;;;5028857;28;20040;-51
2022/03/28 07:21:56;;;;;;;6.07;3.63;;;;;;;;;;5040265;28;20111;-48
2022/03/28 07:24:22;;;;;;;3.88;3.10;;;;;;;;;;5033496;28;20033;-52
2022/03/28 07:26:49;;;;;;;5.43;3.53;;;;;;;;;;5043336;28;20022;-50
2022/03/28 07:29:17;;;;;;;4.38;3.30;;;;;;;;;;5037136;28;20484;-51
2022/03/28 07:31:44;;;;;;;6.15;3.60;;;;;;;;;;5026525;28;20396;-52
2022/03/28 07:36:56;;;;;;;7.05;3.05;;;;;;;;;;5035807;28;20056;-48
2022/03/28 07:39:22;;;;;;;4.68;3.47;;;;;;;;;;5038251;28;20049;-50
2022/03/28 07:41:49;;;;;;;3.83;2.65;;;;;;;;;;5031215;28;20523;-48
2022/03/28 07:44:15;;;;;;;3.65;2.55;;;;;;;;;;5031735;28;20034;-51
2022/03/28 07:46:44;;;;;;;4.38;3.10;;;;;;;;;;5027264;28;20072;-48
2022/03/28 07:49:14;;;;;;;4.47;2.90;;;;;;;;;;5043506;28;20042;-48
2022/03/28 07:51:41;;;;;;;5.72;2.72;;;;;;;;;;5037347;28;20022;-50
2022/03/28 07:54:07;;;;;;;3.40;2.60;;;;;;;;;;5032646;28;20092;-52
2022/03/28 07:56:34;;;;;;;3.83;2.42;;;;;;;;;;5048932;28;20029;-52
2022/03/28 07:59:00;;;;;;;3.70;2.22;;;;;;;;;;5049080;28;20033;-49
2022/03/28 08:01:26;;;;;;;3.15;2.30;;;;;;;;;;5049476;28;20028;-50
2022/03/28 08:03:53;;;;;;;3.20;2.20;;;;;;;;;;5045678;28;20627;-51
2022/03/28 08:06:19;;;;;;;4.05;2.72;;;;;;;;;;5040495;28;20116;-50
2022/03/28 08:08:45;;;;;;;3.72;2.40;;;;;;;;;;5032856;28;20085;-51
2022/03/28 08:11:11;;;;;;;2.40;2.00;;;;;;;;;;5032232;28;20029;-52
2022/03/28 08:13:37;;;;;;;3.10;2.40;;;;;;;;;;5029502;28;20041;-49
2022/03/28 08:16:04;;;;;;;3.85;2.60;;;;;;;;;;5032332;28;20029;-51
2022/03/28 08:18:32;;;;;;;3.30;2.25;;;;;;;;;;5059447;28;20046;-51
2022/03/28 08:20:59;;;;;;;3.42;2.40;;;;;;;;;;5058728;28;20032;-52
2022/03/28 08:23:25;;;;;;;2.53;1.90;;;;;;;;;;5057948;28;20037;-50
2022/03/28 08:25:51;;;;;;;4.00;2.53;;;;;;;;;;5029024;28;20030;-49
2022/03/28 08:28:17;;;;;;;2.97;2.10;;;;;;;;;;5029479;28;20112;-48
2022/03/28 08:30:44;;;;;;;2.28;1.92;;;;;;;;;;5029196;28;20049;-47
2022/03/28 08:33:10;;;;;;;3.40;2.50;;;;;;;;;;5034231;28;20343;-51
2022/03/28 08:35:37;;;;;;;5.05;2.30;;;;;;;;;;5029320;28;20025;-52
2022/03/28 08:38:03;;;;;;;3.47;2.42;;;;;;;;;;5044628;28;20033;-51
2022/03/28 08:40:29;;;;;;;3.13;2.20;;;;;;;;;;5041662;28;20029;-47
2022/03/28 08:42:56;;;;;;;2.72;1.88;;;;;;;;;;5035096;28;20033;-49
2022/03/28 08:45:22;;;;;;;2.72;1.98;;;;;;;;;;5035632;28;20074;-50
2022/03/28 08:47:49;;;;;;;2.97;2.20;;;;;;;;;;5030727;28;20037;-52
2022/03/28 08:50:15;;;;;;;3.17;2.15;;;;;;;;;;5030300;28;20029;-51
2022/03/28 08:52:42;;;;;;;2.85;1.90;;;;;;;;;;5031967;28;20124;-51
2022/03/28 08:55:12;;;;;;;2.53;1.65;;;;;;;;;;5032424;28;20041;-48
2022/03/28 08:57:38;;;;;;;3.40;1.90;;;;;;;;;;5030550;28;20087;-50
2022/03/28 09:00:06;;;;;;;2.78;1.55;;;;;;;;;;5034695;28;20820;-52
2022/03/28 09:02:39;;;;;;;2.22;1.60;;;;;;;;;;5029466;28;20488;-50
2022/03/28 09:05:05;;;;;;;2.30;1.50;;;;;;;;;;5032713;28;20086;-51
2022/03/28 09:07:32;;;;;;;1.88;1.30;;;;;;;;;;5027730;28;20116;-49
2022/03/28 09:10:01;;;;;;;1.60;1.20;;;;;;;;;;5041247;28;20055;-50
2022/03/28 09:12:27;;;;;;;1.50;1.33;;;;;;;;;;5038779;28;20112;-50
2022/03/28 09:15:02;;;;;;;1.60;1.40;;;;;;;;;;5041560;28;20040;-51
2022/03/28 09:17:28;;;;;;;2.00;1.55;;;;;;;;;;5043993;28;20025;-48
2022/03/28 09:20:02;;;;;;;1.20;1.00;;;;;;;;;;5031361;28;20577;-50
2022/03/28 09:22:36;;;;;;;1.88;1.45;;;;;;;;;;5039145;28;20152;-52
2022/03/28 09:25:07;;;;;;;1.60;1.20;;;;;;;;;;5039366;28;20400;-50
2022/03/28 09:27:34;;;;;;;1.65;1.10;;;;;;;;;;5029690;28;20265;-50
2022/03/28 09:30:19;;;;;;;0.85;0.75;;;;;;;;;;5030019;28;20583;-52
2022/03/28 09:32:48;;;;;;;1.13;0.93;;;;;;;;;;5041717;28;20033;-48
2022/03/28 09:35:24;;;;;;;1.10;1.00;;;;;;;;;;5040463;28;20578;-50
2022/03/28 09:37:50;;;;;;;1.38;1.27;;;;;;;;;;5031189;28;20460;-52
2022/03/28 09:40:24;;;;;;;1.85;1.13;;;;;;;;;;5035454;28;20041;-50
2022/03/28 09:42:50;;;;;;;2.17;1.23;;;;;;;;;;5041423;28;20029;-47
2022/03/28 09:45:20;;;;;;;1.02;0.90;;;;;;;;;;5038168;28;20032;-48
2022/03/28 09:48:03;;;;;;;1.30;1.20;;;;;;;;;;5045798;28;20036;-51
2022/03/28 09:50:31;;;;;;;1.40;1.00;;;;;;;;;;5046974;28;20033;-50
2022/03/28 09:52:57;;;;;;;2.45;1.38;;;;;;;;;;5042692;28;20052;-51
2022/03/28 09:55:23;;;;;;;1.40;1.08;;;;;;;;;;5028281;28;20558;-51
2022/03/28 09:57:49;;;;;;;1.42;1.30;;;;;;;;;;5027687;28;20040;-50
2022/03/28 10:00:20;;;;;;;1.80;1.33;;;;;;;;;;5039736;28;20047;-47
2022/03/28 10:02:47;;;;;;;1.23;1.10;;;;;;;;;;5045872;28;20090;-50
2022/03/28 10:05:14;;;;;;;2.00;1.45;;;;;;;;;;5047366;28;20032;-46
2022/03/28 10:07:40;;;;;;;1.75;1.17;;;;;;;;;;5029042;28;20022;-50
2022/03/28 10:10:07;;;;;;;1.80;1.42;;;;;;;;;;5027625;28;20060;-47
2022/03/28 10:12:33;;;;;;;1.67;1.13;;;;;;;;;;5045582;28;20028;-47
2022/03/28 10:15:01;;;;;;;1.50;1.10;;;;;;;;;;5046948;28;20056;-47
2022/03/28 10:17:31;;;;;;;1.25;1.13;;;;;;;;;;5059280;28;20033;-47
2022/03/28 10:19:58;;;;;;;1.20;1.10;;;;;;;;;;5049571;28;20733;-50
2022/03/28 10:22:34;;;;;;;1.55;1.40;;;;;;;;;;5047509;28;20104;-47
2022/03/28 10:25:09;;;;;;;1.40;1.20;;;;;;;;;;5044418;28;20029;-49
2022/03/28 10:27:37;;;;;;;1.38;1.20;;;;;;;;;;5031115;28;20029;-49
2022/03/28 10:30:22;;;;;;;1.50;1.20;;;;;;;;;;5042748;28;20047;-47
2022/03/28 10:33:07;;;;;;;1.20;1.10;;;;;;;;;;5046813;28;20033;-47
2022/03/28 10:35:33;;;;;;;2.40;1.55;;;;;;;;;;5046854;28;20042;-48
2022/03/28 10:38:15;;;;;;;2.03;1.58;;;;;;;;;;5041702;28;20029;-49
2022/03/28 10:41:00;;;;;;;1.35;1.20;;;;;;;;;;5028199;28;20065;-46
2022/03/28 10:43:28;;;;;;;1.75;1.45;;;;;;;;;;5041281;28;20408;-48
2022/03/28 10:45:56;;;;;;;1.98;1.35;;;;;;;;;;5047299;28;20032;-45
2022/03/28 10:48:34;;;;;;;2.40;1.80;;;;;;;;;;5043676;28;20067;-46
2022/03/28 10:51:06;;;;;;;2.85;1.85;;;;;;;;;;5033163;28;20092;-46
2022/03/28 10:53:43;;;;;;;2.35;1.92;;;;;;;;;;5033200;28;20036;-49
2022/03/28 10:56:14;;;;;;;4.10;2.67;;;;;;;;;;5031359;28;20123;-48
2022/03/28 10:58:42;;;;;;;2.90;2.13;;;;;;;;;;5041062;28;20494;-48
2022/03/28 11:01:08;;;;;;;2.67;2.10;;;;;;;;;;5026744;28;20612;-48
2022/03/28 11:03:35;;;;;;;2.58;1.60;;;;;;;;;;5027499;28;20017;-48
2022/03/28 11:06:02;;;;;;;2.20;1.70;;;;;;;;;;5030937;28;20038;-45
2022/03/28 11:08:36;;;;;;;2.08;1.70;;;;;;;;;;5031282;28;20025;-47
2022/03/28 11:11:14;;;;;;;3.20;2.13;;;;;;;;;;5046401;28;20037;-47
2022/03/28 11:13:40;;;;;;;3.28;2.33;;;;;;;;;;5046181;28;20099;-48
2022/03/28 11:16:17;;;;;;;3.78;2.83;;;;;;;;;;5036780;28;20033;-46
2022/03/28 11:18:43;;;;;;;4.57;2.65;;;;;;;;;;5042706;28;20029;-46
2022/03/28 11:21:15;;;;;;;3.75;2.97;;;;;;;;;;5045886;28;20059;-48
2022/03/28 11:23:42;;;;;;;4.78;2.88;;;;;;;;;;5025619;28;20037;-49
2022/03/28 11:26:10;;;;;;;4.43;3.42;;;;;;;;;;5037935;28;20107;-46
2022/03/28 11:28:39;;;;;;;5.97;3.50;;;;;;;;;;5028270;28;20078;-50
2022/03/28 11:31:09;;;;;;;7.78;4.90;;;;;;;;;;5030864;28;20493;-48
2022/03/28 11:33:39;;;;;;;7.22;4.65;;;;;;;;;;5030399;28;20484;-49
2022/03/28 11:36:12;;;;;;;5.70;4.32;;;;;;;;;;5047638;28;20037;-49
2022/03/28 11:38:39;;;;;;;5.85;4.53;;;;;;;;;;5038961;28;20033;-47
2022/03/28 11:41:05;;;;;;;4.82;3.30;;;;;;;;;;5052395;28;20480;-48
2022/03/28 11:43:34;;;;;;;4.80;3.17;;;;;;;;;;5035958;28;20030;-45
2022/03/28 11:46:01;;;;;;;3.90;2.80;;;;;;;;;;5036734;28;20500;-50
2022/03/28 11:48:27;;;;;;;4.53;3.22;;;;;;;;;;5032649;28;22010;-49
2022/03/28 11:50:55;;;;;;;6.40;4.20;;;;;;;;;;5035585;28;20038;-46
2022/03/28 11:53:22;;;;;;;6.15;4.40;;;;;;;;;;5040751;28;20032;-47
2022/03/28 11:55:50;;;;;;;6.80;3.83;;;;;;;;;;5028164;28;20033;-48
2022/03/28 11:58:16;;;;;;;5.22;3.75;;;;;;;;;;5043347;28;20032;-49
2022/03/28 12:00:48;;;;;;;5.68;3.63;;;;;;;;;;5032904;28;20022;-50
2022/03/28 12:03:16;;;;;;;5.93;3.55;;;;;;;;;;5036638;28;20036;-46
2022/03/28 12:05:43;;;;;;;6.78;4.18;;;;;;;;;;5040373;28;20044;-50
2022/03/28 12:08:13;;;;;;;6.25;4.47;;;;;;;;;;5031008;28;20025;-47
2022/03/28 12:10:40;;;;;;;3.55;3.10;;;;;;;;;;5048912;28;20041;-49
2022/03/28 12:13:07;;;;;;;5.90;4.15;;;;;;;;;;5048718;28;20029;-50
2022/03/28 12:15:44;;;;;;;4.50;3.65;;;;;;;;;;5042179;28;20036;-50
2022/03/28 12:18:10;;;;;;;5.20;3.85;;;;;;;;;;5037878;28;20032;-46
2022/03/28 12:20:40;;;;;;;4.63;3.80;;;;;;;;;;5038592;28;20100;-46
2022/03/28 12:23:08;;;;;;;4.63;3.40;;;;;;;;;;5033075;28;20030;-46
2022/03/28 12:25:35;;;;;;;5.53;3.40;;;;;;;;;;5026906;28;20685;-48
2022/03/28 12:28:06;;;;;;;3.95;3.20;;;;;;;;;;5034693;28;20049;-48
2022/03/28 12:30:38;;;;;;;4.75;3.42;;;;;;;;;;5027996;28;20108;-49
2022/03/28 12:33:21;;;;;;;3.53;3.05;;;;;;;;;;5028709;28;20025;-46
2022/03/28 12:35:49;;;;;;;4.88;3.30;;;;;;;;;;5037374;28;20648;-49
2022/03/28 12:38:20;;;;;;;4.40;3.30;;;;;;;;;;5039368;28;20115;-47
2022/03/28 12:40:48;;;;;;;6.72;4.05;;;;;;;;;;5036297;28;20429;-48
2022/03/28 12:43:16;;;;;;;6.72;4.10;;;;;;;;;;5029354;28;20028;-47
2022/03/28 12:45:43;;;;;;;5.45;3.72;;;;;;;;;;5033156;28;20044;-50
2022/03/28 12:48:11;;;;;;;5.70;3.30;;;;;;;;;;5041831;28;20021;-48
2022/03/28 12:50:50;;;;;;;4.00;2.60;;;;;;;;;;5027780;28;20108;-47
2022/03/28 12:53:17;;;;;;;3.47;2.80;;;;;;;;;;5031564;28;20708;-51
2022/03/28 12:55:44;;;;;;;4.53;3.22;;;;;;;;;;5033974;28;20040;-49
2022/03/28 12:58:11;;;;;;;5.10;4.07;;;;;;;;;;5031711;28;20068;-50
2022/03/28 13:00:38;;;;;;;5.75;3.53;;;;;;;;;;5032064;28;20557;-51
2022/03/28 13:03:05;;;;;;;5.60;3.78;;;;;;;;;;5029010;28;20569;-50
2022/03/28 13:05:32;;;;;;;6.00;3.88;;;;;;;;;;5027661;28;20025;-46
2022/03/28 13:08:11;;;;;;;4.55;3.85;;;;;;;;;;5036856;28;20032;-50
2022/03/28 13:10:39;;;;;;;5.35;3.45;;;;;;;;;;5042292;28;20044;-50
2022/03/28 13:13:06;;;;;;;5.15;3.47;;;;;;;;;;5047529;28;20074;-49
2022/03/28 13:15:33;;;;;;;5.35;4.13;;;;;;;;;;5039357;28;20040;-50
2022/03/28 13:18:11;;;;;;;5.85;4.72;;;;;;;;;;5046647;28;20082;-50
2022/03/28 13:20:39;;;;;;;7.30;4.88;;;;;;;;;;5047106;28;20111;-51
2022/03/28 13:23:19;;;;;;;6.55;4.35;;;;;;;;;;5046532;28;20028;-50
2022/03/28 13:25:45;;;;;;;4.82;4.00;;;;;;;;;;5042073;28;20235;-51
2022/03/28 13:28:21;;;;;;;9.70;5.05;;;;;;;;;;5025667;28;20112;-49
2022/03/28 13:30:49;;;;;;;5.60;3.90;;;;;;;;;;5026247;28;20042;-51
2022/03/28 13:33:16;;;;;;;6.47;3.88;;;;;;;;;;5026050;28;20060;-48
2022/03/28 13:35:46;;;;;;;3.83;3.33;;;;;;;;;;5025110;28;20037;-49
2022/03/28 13:38:14;;;;;;;6.03;3.90;;;;;;;;;;5039765;28;20029;-50
2022/03/28 13:40:41;;;;;;;4.60;3.75;;;;;;;;;;5045196;28;20025;-51
2022/03/28 13:43:08;;;;;;;8.70;4.70;;;;;;;;;;5043932;28;20029;-50
2022/03/28 13:45:35;;;;;;;5.57;4.63;;;;;;;;;;5044827;28;20111;-49
2022/03/28 13:48:03;;;;;;;5.20;4.10;;;;;;;;;;5045661;28;20036;-51
2022/03/28 13:50:30;;;;;;;6.28;4.38;;;;;;;;;;5035053;28;20029;-50
2022/03/28 13:52:57;;;;;;;5.57;4.22;;;;;;;;;;5027702;28;20038;-51
2022/03/28 13:55:23;;;;;;;4.95;4.00;;;;;;;;;;5027195;28;20034;-51
2022/03/28 13:57:50;;;;;;;4.32;3.72;;;;;;;;;;5046015;28;20029;-48
2022/03/28 14:00:16;;;;;;;3.95;3.15;;;;;;;;;;5045695;28;20021;-50
2022/03/28 14:02:42;;;;;;;3.55;3.08;;;;;;;;;;5043578;28;20594;-50
2022/03/28 14:05:08;;;;;;;4.18;3.10;;;;;;;;;;5043950;28;20024;-50
2022/03/28 14:07:35;;;;;;;3.85;3.10;;;;;;;;;;5031721;28;20040;-51
2022/03/28 14:10:02;;;;;;;5.47;4.30;;;;;;;;;;5024598;28;20037;-51
2022/03/28 14:12:29;;;;;;;4.57;3.63;;;;;;;;;;5025110;28;20055;-50
2022/03/28 14:14:56;;;;;;;4.45;3.38;;;;;;;;;;5025426;28;20030;-50
2022/03/28 14:17:23;;;;;;;4.05;2.90;;;;;;;;;;5025104;28;20352;-47
2022/03/28 14:19:50;;;;;;;4.28;3.38;;;;;;;;;;5025259;28;20041;-49
2022/03/28 14:22:16;;;;;;;6.47;4.20;;;;;;;;;;5043001;28;20048;-48
2022/03/28 14:24:42;;;;;;;6.60;4.25;;;;;;;;;;5044411;28;20064;-50
2022/03/28 14:27:09;;;;;;;6.32;4.50;;;;;;;;;;5044861;28;20013;-50
2022/03/28 14:29:35;;;;;;;7.00;4.95;;;;;;;;;;5044519;28;20065;-50
2022/03/28 14:32:04;;;;;;;4.95;3.88;;;;;;;;;;5042344;28;20551;-47
2022/03/28 14:34:31;;;;;;;7.63;4.80;;;;;;;;;;5030575;28;20048;-50
2022/03/28 14:36:57;;;;;;;5.30;4.45;;;;;;;;;;5029267;28;20028;-47
2022/03/28 14:39:23;;;;;;;6.70;4.80;;;;;;;;;;5027273;28;20072;-46
2022/03/28 14:41:49;;;;;;;5.07;4.43;;;;;;;;;;5033397;28;20133;-47
2022/03/28 14:44:16;;;;;;;6.95;5.43;;;;;;;;;;5044934;28;20099;-47
2022/03/28 14:47:00;;;;;;;11.25;6.10;;;;;;;;;;5029220;28;20080;-46
2022/03/28 14:49:26;;;;;;;7.93;6.05;;;;;;;;;;5040119;28;20300;-48
2022/03/28 14:51:53;;;;;;;7.03;5.40;;;;;;;;;;5041147;28;20139;-48